KCMA

Camarillo Airport

Camarillo, California, USA
METAR KCMA 232155Z 24017G24KT 10SM CLR 16/M03 A3017 RMK AO2 SLP225 T01561033
Observed Flight Rules
Feb-23 @ 21:55 UTC (43 minutes ago) Visual Flight Rules
Wind Visibility Clouds
240° at 17 knots
 Gusting to 24 knots
10 miles
  • Clear skies
Temperatures Readings
Current 16°C / 61°F
Dewpoint -3°C / 27°F
Humidity 27%
Altimeter 30.17" Hg
Pressure 1022.5 hPa
Elevation 23
METAR KCMA 232155Z 24017G24KT 10SM CLR 16/M03 A3017 RMK AO2 SLP225 T01561033
Observed Flight Rules
Feb-23 @ 21:55 UTC
(43 minutes ago)
VFR
Wind Visibility
240° at 17 knots
 Gusting to 24 knots
10 miles
Clouds
  • Clear skies
Temperature Dewpoint
16°C / 61°F -3°C / 27°F
Humidity Altimeter Pressure
27% 30.17" Hg 1022.5 hPa